Time;durP1;ratioP1;P1;durP2;ratioP2;P2;SDS_P1;SDS_P2;PMS_P1;PMS_P2;Temp;Humidity;BMP_temperature;BMP_pressure;BME280_temperature;BME280_humidity;BME280_pressure;Samples;Min_cycle;Max_cycle;Signal;HPM_P1;HPM_P2
2022/01/05 00:01:58;;;;;;;10.43;1.98;;;;;;;4.83;70.80;99901.22;3583085;39;20054;-64
2022/01/05 00:04:23;;;;;;;10.70;2.20;;;;;;;4.81;71.13;99910.25;3593311;39;20044;-64
2022/01/05 00:06:49;;;;;;;13.38;3.03;;;;;;;4.79;71.20;99925.41;3593440;39;20309;-64
2022/01/05 00:09:15;;;;;;;9.38;2.40;;;;;;;4.77;71.08;99912.19;3592441;39;20048;-64
2022/01/05 00:11:41;;;;;;;12.73;2.33;;;;;;;4.67;71.06;99907.47;3594147;39;20397;-63
2022/01/05 00:14:07;;;;;;;12.40;2.80;;;;;;;4.75;71.53;99924.72;3594003;39;20052;-64
2022/01/05 00:16:32;;;;;;;11.90;2.88;;;;;;;4.57;71.56;99894.63;3595256;39;20056;-64
2022/01/05 00:18:58;;;;;;;10.85;2.28;;;;;;;4.70;71.66;99916.13;3591857;39;20131;-63
2022/01/05 00:21:24;;;;;;;10.60;2.30;;;;;;;4.71;71.98;99923.16;3590850;39;20056;-64
2022/01/05 00:23:49;;;;;;;13.15;2.50;;;;;;;4.59;71.86;99913.16;3591309;39;20654;-63
2022/01/05 00:26:15;;;;;;;12.23;2.13;;;;;;;4.59;71.74;99918.47;3588297;39;20060;-63
2022/01/05 00:28:41;;;;;;;8.10;2.10;;;;;;;4.54;71.90;99916.06;3583935;40;20048;-63
2022/01/05 00:31:06;;;;;;;11.57;2.95;;;;;;;4.49;72.11;99914.56;3591551;39;20075;-63
2022/01/05 00:33:32;;;;;;;11.30;2.10;;;;;;;4.41;71.40;99909.66;3588352;39;20053;-64
2022/01/05 00:35:57;;;;;;;10.88;2.33;;;;;;;4.38;71.67;99916.00;3591128;39;20055;-64
2022/01/05 00:38:23;;;;;;;11.15;2.53;;;;;;;4.39;71.66;99916.84;3588002;39;20092;-63
2022/01/05 00:40:49;;;;;;;10.25;2.40;;;;;;;4.33;71.61;99922.47;3587814;39;20399;-64
2022/01/05 00:43:14;;;;;;;12.85;1.95;;;;;;;4.29;71.46;99918.28;3591787;39;20055;-63
2022/01/05 00:45:41;;;;;;;10.57;2.08;;;;;;;4.24;71.50;99929.13;3584624;40;20064;-63
2022/01/05 00:48:06;;;;;;;12.68;2.70;;;;;;;4.19;71.44;99928.50;3594200;39;20318;-64
2022/01/05 00:50:32;;;;;;;11.50;2.13;;;;;;;4.12;71.63;99940.38;3595159;39;20052;-64
2022/01/05 00:53:00;;;;;;;11.35;2.42;;;;;;;4.10;71.28;99934.28;3588591;39;20059;-63
2022/01/05 00:55:28;;;;;;;12.60;2.60;;;;;;;4.07;71.50;99926.47;3583837;40;20055;-63
2022/01/05 00:57:54;;;;;;;12.20;2.80;;;;;;;4.06;71.55;99940.66;3588422;39;20084;-63
2022/01/05 01:00:20;;;;;;;10.85;2.65;;;;;;;4.00;71.54;99959.63;3593315;39;20082;-63
2022/01/05 01:02:45;;;;;;;13.70;2.55;;;;;;;4.00;71.36;99957.81;3593009;39;20051;-64
2022/01/05 01:05:13;;;;;;;12.35;2.83;;;;;;;3.87;71.90;99938.03;3588346;39;20301;-64
2022/01/05 01:07:38;;;;;;;11.43;2.92;;;;;;;3.97;71.65;99957.09;3585476;40;20094;-64
2022/01/05 01:10:05;;;;;;;11.80;2.90;;;;;;;3.93;71.76;99961.69;3585249;40;20060;-62
2022/01/05 01:12:32;;;;;;;10.60;2.78;;;;;;;3.88;71.55;99958.41;3591610;39;20051;-64
2022/01/05 01:14:58;;;;;;;9.85;2.47;;;;;;;3.84;71.38;99952.38;3584795;39;20086;-63
2022/01/05 01:17:23;;;;;;;11.18;2.50;;;;;;;3.83;71.41;99955.09;3594727;39;20095;-63
2022/01/05 01:19:49;;;;;;;14.02;2.53;;;;;;;3.51;71.54;99914.09;3594696;39;20055;-63
2022/01/05 01:22:15;;;;;;;12.48;2.55;;;;;;;3.77;71.77;99956.25;3589547;39;20048;-63
2022/01/05 01:24:40;;;;;;;14.52;2.80;;;;;;;3.73;71.65;99965.31;3591836;39;20370;-63
2022/01/05 01:27:06;;;;;;;9.10;2.42;;;;;;;3.71;71.56;99969.81;3591963;39;20062;-64
2022/01/05 01:29:31;;;;;;;7.82;2.65;;;;;;;3.68;71.96;99962.88;3596151;39;20272;-63
2022/01/05 01:31:57;;;;;;;8.15;2.33;;;;;;;3.65;71.58;99959.50;3593615;39;20051;-63
2022/01/05 01:34:23;;;;;;;12.00;2.47;;;;;;;3.60;71.79;99962.34;3594083;39;20056;-63
2022/01/05 01:36:48;;;;;;;11.55;2.45;;;;;;;3.64;71.93;99960.41;3595489;39;20051;-63
2022/01/05 01:39:14;;;;;;;11.95;3.10;;;;;;;3.39;71.78;99929.69;3592480;39;20082;-63
2022/01/05 01:41:40;;;;;;;7.55;2.55;;;;;;;3.57;71.94;99980.25;3594870;39;20056;-62
2022/01/05 01:44:06;;;;;;;11.10;2.45;;;;;;;3.54;71.68;99975.06;3593634;39;20066;-64
2022/01/05 01:46:32;;;;;;;12.32;3.00;;;;;;;3.52;71.67;99968.97;3589547;40;20044;-63
2022/01/05 01:48:58;;;;;;;13.15;3.00;;;;;;;3.51;71.16;99967.25;3591495;39;20047;-63
2022/01/05 01:51:23;;;;;;;13.00;2.70;;;;;;;3.47;71.49;99970.03;3597118;39;20409;-63
2022/01/05 01:53:50;;;;;;;10.15;2.60;;;;;;;3.45;71.58;99971.03;3596550;39;20062;-63
2022/01/05 01:56:17;;;;;;;12.52;2.88;;;;;;;3.44;71.69;99964.88;3590841;39;20651;-63
2022/01/05 01:58:45;;;;;;;12.63;3.20;;;;;;;3.42;71.69;99965.88;3596448;39;20059;-63
2022/01/05 02:01:13;;;;;;;9.90;2.30;;;;;;;3.39;71.00;99966.00;3591233;39;20393;-63
2022/01/05 02:03:38;;;;;;;7.65;2.35;;;;;;;3.26;70.64;99949.78;3586706;40;20040;-63
2022/01/05 02:06:04;;;;;;;14.68;2.47;;;;;;;3.37;70.53;99973.22;3590698;39;20066;-63
2022/01/05 02:08:30;;;;;;;13.60;2.65;;;;;;;3.36;70.85;99971.47;3595210;39;20882;-63
2022/01/05 02:10:55;;;;;;;11.50;2.45;;;;;;;3.36;70.97;99977.66;3589116;39;20353;-63
2022/01/05 02:13:21;;;;;;;10.05;2.25;;;;;;;3.35;70.18;99975.91;3591457;39;20050;-63
2022/01/05 02:15:46;;;;;;;9.93;2.58;;;;;;;3.37;70.29;99971.41;3585109;40;20055;-63
2022/01/05 02:21:09;;;;;;;7.75;1.70;;;;;;;3.35;70.03;99981.22;3585481;40;20363;-63
2022/01/05 02:23:36;;;;;;;9.68;2.38;;;;;;;3.31;69.59;99974.34;3585910;40;20074;-63
2022/01/05 02:26:05;;;;;;;15.10;2.60;;;;;;;3.28;69.72;99958.53;3585835;40;20044;-63
2022/01/05 02:28:31;;;;;;;11.82;2.60;;;;;;;3.13;70.06;99938.84;3583560;40;20067;-63
2022/01/05 02:30:57;;;;;;;13.27;2.80;;;;;;;3.22;70.01;99958.81;3584984;40;20044;-63
2022/01/05 02:33:24;;;;;;;11.73;2.75;;;;;;;3.31;70.22;99984.97;3593853;39;20047;-63
2022/01/05 02:35:52;;;;;;;13.50;2.85;;;;;;;3.22;70.18;99972.97;3594327;39;20057;-63
2022/01/05 02:38:20;;;;;;;16.17;3.83;;;;;;;3.30;70.75;99985.03;3589948;39;20084;-64
2022/01/05 02:40:46;;;;;;;13.63;2.58;;;;;;;3.24;70.11;99984.38;3594370;39;20052;-64
2022/01/05 02:43:12;;;;;;;12.73;3.78;;;;;;;3.21;70.43;99994.28;3593049;39;20315;-63
2022/01/05 02:45:38;;;;;;;10.80;2.50;;;;;;;3.18;70.80;99987.31;3596476;39;20047;-64
2022/01/05 02:48:05;;;;;;;7.70;2.50;;;;;;;3.14;70.83;99993.72;3585494;40;20347;-63
2022/01/05 02:50:31;;;;;;;10.35;2.40;;;;;;;3.11;71.21;99999.16;3594649;39;20055;-63
2022/01/05 02:52:57;;;;;;;12.60;2.72;;;;;;;3.08;71.30;100001.09;3593458;39;20043;-63
2022/01/05 02:55:22;;;;;;;12.65;2.60;;;;;;;3.04;71.71;99997.69;3590671;39;20060;-63
2022/01/05 02:57:48;;;;;;;9.43;2.22;;;;;;;2.98;71.84;100003.25;3593648;39;20373;-63
2022/01/05 03:00:16;;;;;;;10.48;2.58;;;;;;;2.97;71.87;100005.06;3585120;39;20048;-63
2022/01/05 03:02:42;;;;;;;8.50;2.78;;;;;;;2.95;71.88;100009.59;3593523;39;20092;-63
2022/01/05 03:05:10;;;;;;;11.35;2.38;;;;;;;2.91;71.80;100010.63;3584273;40;20382;-63
2022/01/05 03:07:39;;;;;;;12.07;2.28;;;;;;;2.88;72.27;100018.72;3584757;40;20044;-64
2022/01/05 03:10:10;;;;;;;12.55;2.22;;;;;;;2.76;72.47;100003.34;3584793;40;20056;-64
2022/01/05 03:12:39;;;;;;;12.52;2.63;;;;;;;2.84;72.22;100016.28;3587569;40;20044;-63
2022/01/05 03:15:06;;;;;;;10.27;2.40;;;;;;;2.84;71.70;100021.59;3584884;40;20064;-64
2022/01/05 03:17:32;;;;;;;10.40;2.72;;;;;;;2.83;72.56;100026.03;3587008;40;20086;-63
2022/01/05 03:19:57;;;;;;;13.38;2.95;;;;;;;2.83;71.51;100027.84;3584332;40;20401;-63
2022/01/05 03:22:23;;;;;;;11.30;2.38;;;;;;;2.81;71.83;100033.19;3584462;40;20275;-63
2022/01/05 03:24:49;;;;;;;10.60;2.30;;;;;;;2.78;71.84;100038.63;3584377;40;20432;-63
2022/01/05 03:27:14;;;;;;;12.80;2.20;;;;;;;2.80;72.04;100047.41;3584699;40;20379;-63
2022/01/05 03:29:40;;;;;;;11.85;2.13;;;;;;;2.78;71.57;100043.94;3584139;40;20318;-64
2022/01/05 03:32:06;;;;;;;14.07;2.53;;;;;;;2.78;71.34;100043.94;3584839;40;20056;-63
2022/01/05 03:34:32;;;;;;;11.65;2.33;;;;;;;2.75;71.72;100038.75;3584971;40;20051;-63
2022/01/05 03:36:59;;;;;;;9.20;2.28;;;;;;;2.73;72.03;100041.50;3583996;40;20056;-64
2022/01/05 03:39:26;;;;;;;10.52;2.70;;;;;;;2.77;71.47;100047.53;3584155;40;20044;-64
2022/01/05 03:41:52;;;;;;;13.18;3.92;;;;;;;2.78;71.95;100049.25;3584141;40;20055;-63
2022/01/05 03:44:18;;;;;;;10.95;2.30;;;;;;;2.58;71.34;100020.03;3586929;40;20052;-63
2022/01/05 03:46:43;;;;;;;9.52;2.20;;;;;;;2.83;71.09;100063.19;3587871;40;20056;-63
2022/01/05 03:49:09;;;;;;;10.02;2.58;;;;;;;2.83;71.10;100057.03;3584406;40;20060;-64
2022/01/05 03:51:34;;;;;;;13.13;2.40;;;;;;;2.83;71.32;100057.88;3580814;39;20047;-63
2022/01/05 03:54:00;;;;;;;8.75;2.30;;;;;;;2.83;71.02;100062.34;3591476;39;20083;-64
2022/01/05 03:56:25;;;;;;;11.70;2.60;;;;;;;2.83;70.61;100062.34;3591429;39;20365;-64
2022/01/05 03:58:51;;;;;;;12.85;2.55;;;;;;;2.85;70.17;100063.97;3592389;39;20051;-63
2022/01/05 04:01:17;;;;;;;12.20;2.20;;;;;;;2.88;71.09;100058.53;3591580;39;20105;-64
2022/01/05 04:03:42;;;;;;;10.38;2.25;;;;;;;2.97;71.02;100055.50;3593504;39;20128;-63
2022/01/05 04:06:08;;;;;;;13.05;2.75;;;;;;;2.99;70.19;100058.94;3591413;39;20099;-63
2022/01/05 04:08:34;;;;;;;10.07;2.47;;;;;;;3.01;70.15;100065.06;3593853;39;20059;-63
2022/01/05 04:10:59;;;;;;;13.55;2.58;;;;;;;3.04;70.44;100066.72;3593158;39;20379;-63
2022/01/05 04:13:25;;;;;;;8.93;2.30;;;;;;;3.02;69.80;100068.59;3594283;39;20064;-63
2022/01/05 04:15:51;;;;;;;15.30;2.90;;;;;;;3.06;69.42;100061.34;3588850;39;20055;-63
2022/01/05 04:18:16;;;;;;;14.20;2.50;;;;;;;2.87;69.28;100032.94;3591141;39;20052;-63
2022/01/05 04:20:42;;;;;;;13.73;2.30;;;;;;;3.02;69.77;100058.81;3593394;39;20051;-63
2022/01/05 04:23:08;;;;;;;12.45;2.42;;;;;;;3.06;69.08;100074.63;3583278;40;20052;-63
2022/01/05 04:25:34;;;;;;;12.57;2.28;;;;;;;2.98;69.47;100056.34;3586326;40;20064;-63
2022/01/05 04:28:01;;;;;;;14.77;2.40;;;;;;;3.05;69.23;100075.56;3584242;40;20283;-63
2022/01/05 04:30:26;;;;;;;15.82;2.80;;;;;;;3.03;69.48;100068.50;3588632;39;20268;-64
2022/01/05 04:32:52;;;;;;;11.45;2.10;;;;;;;3.06;69.75;100070.16;3588459;39;20043;-63
2022/01/05 04:35:18;;;;;;;14.88;2.80;;;;;;;3.05;69.03;100079.06;3583837;40;20052;-63
2022/01/05 04:37:43;;;;;;;14.18;2.63;;;;;;;2.99;70.09;100080.19;3583995;40;20063;-63
2022/01/05 04:40:11;;;;;;;17.20;2.72;;;;;;;3.02;69.26;100085.38;3583886;40;20391;-63
2022/01/05 04:42:38;;;;;;;19.00;3.22;;;;;;;3.02;69.67;100084.50;3584266;40;20064;-64
2022/01/05 04:45:05;;;;;;;13.23;2.83;;;;;;;2.94;69.94;100081.31;3583864;40;20060;-63
2022/01/05 04:47:31;;;;;;;18.77;3.38;;;;;;;2.73;70.18;100057.41;3588079;39;20077;-63
2022/01/05 04:49:57;;;;;;;15.50;2.72;;;;;;;2.96;70.32;100085.63;3590398;39;20849;-63
2022/01/05 04:52:22;;;;;;;12.82;2.67;;;;;;;3.08;70.05;100094.00;3590646;39;20048;-63
2022/01/05 04:54:48;;;;;;;13.18;3.22;;;;;;;3.07;69.96;100100.22;3583526;40;20417;-63
2022/01/05 04:57:17;;;;;;;15.57;2.83;;;;;;;3.12;70.88;100091.16;3584690;40;20056;-63
2022/01/05 04:59:43;;;;;;;13.95;2.70;;;;;;;3.15;70.56;100088.38;3586312;40;20098;-63
2022/01/05 05:02:11;;;;;;;9.88;1.95;;;;;;;3.22;70.35;100102.22;3587319;40;20121;-63
2022/01/05 05:04:38;;;;;;;12.52;2.80;;;;;;;3.27;70.91;100097.59;3584147;40;20048;-64
2022/01/05 05:07:05;;;;;;;16.70;2.60;;;;;;;3.31;71.04;100099.19;3584997;40;20165;-63
2022/01/05 05:09:30;;;;;;;17.23;2.75;;;;;;;3.33;70.07;100099.09;3583994;40;20380;-63
2022/01/05 05:11:56;;;;;;;11.88;3.00;;;;;;;3.15;70.96;100066.25;3589421;39;20164;-63
2022/01/05 05:14:22;;;;;;;13.32;3.17;;;;;;;3.41;71.07;100112.91;3591888;39;20071;-64
2022/01/05 05:16:47;;;;;;;11.93;2.55;;;;;;;3.44;70.24;100107.47;3591867;39;20121;-63
2022/01/05 05:19:13;;;;;;;15.38;2.95;;;;;;;3.43;70.25;100106.63;3590634;39;20059;-63
2022/01/05 05:21:39;;;;;;;14.68;2.72;;;;;;;3.22;70.54;100063.25;3591166;39;20043;-63
2022/01/05 05:24:05;;;;;;;13.07;2.78;;;;;;;3.46;70.38;100111.78;3590343;39;20106;-63
2022/01/05 05:26:31;;;;;;;16.92;2.60;;;;;;;3.49;70.35;100105.50;3583234;39;20046;-64
2022/01/05 05:28:56;;;;;;;13.25;2.63;;;;;;;3.48;69.62;100106.41;3587941;39;20346;-63
2022/01/05 05:31:22;;;;;;;10.23;2.30;;;;;;;3.37;70.09;100072.34;3591505;39;20133;-63
2022/01/05 05:33:47;;;;;;;16.92;2.58;;;;;;;3.45;70.09;100093.25;3591545;39;20593;-63
2022/01/05 05:36:13;;;;;;;14.15;2.78;;;;;;;3.46;70.60;100093.19;3589872;39;20064;-64
2022/01/05 05:38:38;;;;;;;13.27;3.92;;;;;;;3.43;70.71;100095.13;3592721;39;20047;-63
2022/01/05 05:41:04;;;;;;;13.98;3.10;;;;;;;3.41;70.39;100092.53;3590037;39;20299;-64
2022/01/05 05:43:30;;;;;;;10.43;2.92;;;;;;;3.39;70.40;100089.06;3590815;39;20062;-63
2022/01/05 05:45:56;;;;;;;14.75;3.15;;;;;;;3.40;70.55;100098.78;3590922;39;20055;-63
2022/01/05 05:48:21;;;;;;;12.23;3.42;;;;;;;3.37;70.81;100093.59;3594774;39;20052;-63
2022/01/05 05:50:47;;;;;;;16.20;3.28;;;;;;;3.46;70.71;100101.16;3597573;39;20051;-63
2022/01/05 05:53:13;;;;;;;14.07;2.47;;;;;;;3.12;70.52;100050.47;3595573;39;20117;-63
2022/01/05 05:55:39;;;;;;;11.27;2.90;;;;;;;3.46;70.98;100111.78;3591993;39;20259;-63
2022/01/05 05:58:05;;;;;;;13.75;3.40;;;;;;;3.48;70.64;100109.91;3595175;39;20363;-63
2022/01/05 06:00:30;;;;;;;12.88;3.47;;;;;;;3.47;70.62;100118.81;3597826;39;20044;-63
2022/01/05 06:03:00;;;;;;;13.98;3.28;;;;;;;3.47;71.19;100116.16;3597018;39;20055;-63
2022/01/05 06:05:27;;;;;;;18.67;2.92;;;;;;;3.41;70.99;100113.78;3596485;39;20097;-63
2022/01/05 06:07:52;;;;;;;16.52;3.05;;;;;;;3.45;70.71;100126.00;3587874;39;20124;-63
2022/01/05 06:10:18;;;;;;;16.40;3.50;;;;;;;3.49;71.10;100127.59;3595898;39;20096;-63
2022/01/05 06:12:44;;;;;;;14.10;2.60;;;;;;;3.46;71.20;100127.75;3593026;39;20082;-64
2022/01/05 06:15:10;;;;;;;19.55;3.30;;;;;;;3.48;70.96;100128.50;3595383;39;20071;-64
2022/01/05 06:17:36;;;;;;;15.05;3.28;;;;;;;3.53;71.36;100127.47;3585283;40;20056;-63
2022/01/05 06:20:04;;;;;;;15.63;3.30;;;;;;;3.49;71.03;100129.41;3584821;40;20074;-63
2022/01/05 06:22:31;;;;;;;11.88;2.88;;;;;;;3.54;71.39;100131.84;3592936;39;20052;-63
2022/01/05 06:24:56;;;;;;;14.00;2.85;;;;;;;3.50;70.98;100128.47;3592119;39;20406;-63
2022/01/05 06:27:22;;;;;;;13.52;3.45;;;;;;;3.54;71.42;100137.16;3584753;40;20048;-63
2022/01/05 06:29:47;;;;;;;14.20;2.88;;;;;;;3.55;70.97;100138.88;3584988;40;20045;-63
2022/01/05 06:32:13;;;;;;;19.52;3.28;;;;;;;3.46;71.65;100121.56;3587124;40;21605;-63
2022/01/05 06:34:39;;;;;;;15.38;3.45;;;;;;;3.60;71.34;100144.88;3584717;40;20102;-63
2022/01/05 06:37:04;;;;;;;15.93;3.33;;;;;;;3.41;71.62;100116.44;3594562;39;20132;-63
2022/01/05 06:39:30;;;;;;;10.93;3.00;;;;;;;3.61;71.42;100141.25;3585228;40;20572;-63
2022/01/05 06:41:56;;;;;;;12.25;3.40;;;;;;;3.33;71.45;100104.41;3590199;40;20130;-63
2022/01/05 06:44:22;;;;;;;20.83;3.83;;;;;;;3.59;71.71;100151.13;3597901;39;20044;-63
2022/01/05 06:46:48;;;;;;;14.23;3.35;;;;;;;3.60;71.38;100166.97;3597758;39;20305;-63
2022/01/05 06:49:13;;;;;;;15.93;3.75;;;;;;;3.58;71.27;100155.53;3584700;40;20064;-63
2022/01/05 06:51:39;;;;;;;13.95;3.03;;;;;;;3.64;71.52;100165.03;3583361;40;20040;-63
2022/01/05 06:54:04;;;;;;;13.23;3.28;;;;;;;3.61;71.58;100159.88;3584951;40;20314;-62
2022/01/05 06:56:30;;;;;;;16.02;3.55;;;;;;;3.72;71.82;100173.56;3588259;39;20055;-63
2022/01/05 06:58:55;;;;;;;13.15;3.72;;;;;;;3.68;71.60;100166.66;3587207;39;20087;-63
2022/01/05 07:01:21;;;;;;;14.68;3.20;;;;;;;3.75;71.79;100178.75;3589438;39;20044;-63
2022/01/05 07:03:46;;;;;;;13.23;3.10;;;;;;;3.69;71.41;100173.69;3593788;39;20109;-62
2022/01/05 07:06:12;;;;;;;15.77;3.60;;;;;;;3.79;71.71;100188.31;3594973;39;20064;-62
2022/01/05 07:08:39;;;;;;;15.95;3.22;;;;;;;3.82;71.47;100196.13;3590814;39;20051;-64
2022/01/05 07:11:05;;;;;;;20.95;4.15;;;;;;;3.85;71.44;100203.97;3596459;39;20043;-63
2022/01/05 07:13:30;;;;;;;16.48;3.55;;;;;;;3.24;71.59;100100.38;3597164;39;20397;-63
2022/01/05 07:15:56;;;;;;;15.25;4.10;;;;;;;3.88;71.76;100201.19;3596536;39;20290;-63
2022/01/05 07:18:21;;;;;;;11.55;2.90;;;;;;;3.89;71.89;100202.91;3595841;39;20113;-63
2022/01/05 07:20:47;;;;;;;15.82;3.70;;;;;;;3.89;71.59;100205.56;3594531;39;20051;-63
2022/01/05 07:23:12;;;;;;;21.58;4.15;;;;;;;3.89;71.92;100205.56;3594868;39;20200;-63
2022/01/05 07:25:38;;;;;;;16.60;3.30;;;;;;;3.89;71.74;100202.91;3598700;39;20044;-64
2022/01/05 07:28:04;;;;;;;19.52;3.42;;;;;;;3.89;72.05;100210.03;3595899;39;20059;-63
2022/01/05 07:30:29;;;;;;;19.35;3.35;;;;;;;3.90;71.97;100206.41;3587275;39;20110;-63
2022/01/05 07:32:56;;;;;;;16.88;4.47;;;;;;;3.98;72.70;100214.06;3574560;40;20048;-63
2022/01/05 07:35:22;;;;;;;14.07;3.45;;;;;;;3.95;71.85;100215.94;3585164;39;20048;-64
2022/01/05 07:37:47;;;;;;;13.65;3.22;;;;;;;3.98;71.92;100225.56;3598062;39;20054;-64
2022/01/05 07:40:13;;;;;;;15.07;3.13;;;;;;;4.01;71.94;100227.25;3593812;39;20071;-63
2022/01/05 07:42:39;;;;;;;17.63;3.58;;;;;;;3.92;72.02;100207.22;3584628;40;20059;-63
2022/01/05 07:45:09;;;;;;;17.20;4.13;;;;;;;4.04;72.40;100222.63;3583845;40;20056;-63
2022/01/05 07:47:35;;;;;;;19.35;4.15;;;;;;;4.09;72.22;100227.75;3599128;39;20048;-64
2022/01/05 07:50:03;;;;;;;14.65;3.13;;;;;;;4.05;72.44;100212.88;3591351;39;20349;-64
2022/01/05 07:52:29;;;;;;;16.08;3.72;;;;;;;4.10;72.63;100224.16;3584155;40;20046;-64
2022/01/05 07:54:54;;;;;;;17.10;3.65;;;;;;;4.14;72.01;100226.59;3593843;39;20056;-62
2022/01/05 07:57:20;;;;;;;12.35;3.22;;;;;;;4.22;72.36;100239.59;3589037;39;20057;-62
2022/01/05 07:59:46;;;;;;;14.55;3.05;;;;;;;4.30;72.30;100249.88;3588971;39;20072;-63
2022/01/05 08:02:12;;;;;;;19.08;3.50;;;;;;;4.33;72.55;100247.94;3594180;39;20052;-63
2022/01/05 08:04:38;;;;;;;15.57;3.63;;;;;;;4.34;71.99;100249.66;3584701;40;20162;-63
2022/01/05 08:07:03;;;;;;;9.57;3.00;;;;;;;4.41;72.23;100248.47;3583959;40;20394;-63
2022/01/05 08:09:29;;;;;;;17.40;3.33;;;;;;;4.46;72.09;100256.22;3583504;40;20048;-63
2022/01/05 08:11:58;;;;;;;14.52;3.58;;;;;;;4.53;72.11;100256.78;3583508;40;20056;-63
2022/01/05 08:14:23;;;;;;;14.63;3.10;;;;;;;4.49;72.17;100247.22;3584022;40;20100;-66
2022/01/05 08:16:49;;;;;;;24.85;3.33;;;;;;;4.32;71.94;100213.44;3588480;39;20103;-63
2022/01/05 08:19:15;;;;;;;13.48;3.17;;;;;;;4.69;71.41;100270.25;3593512;39;20063;-63
2022/01/05 08:21:41;;;;;;;13.20;2.85;;;;;;;4.73;71.37;100266.53;3584476;40;20062;-63
2022/01/05 08:24:06;;;;;;;12.07;2.90;;;;;;;4.78;71.91;100276.00;3593666;39;20051;-63
2022/01/05 08:26:32;;;;;;;16.05;3.28;;;;;;;4.82;71.82;100274.97;3596288;39;20067;-63
2022/01/05 08:28:58;;;;;;;16.67;3.47;;;;;;;4.85;71.75;100277.47;3595250;39;20386;-64
2022/01/05 08:31:23;;;;;;;17.20;2.90;;;;;;;4.89;71.61;100276.38;3590704;39;20056;-62
2022/01/05 08:33:49;;;;;;;11.25;3.22;;;;;;;4.94;71.45;100275.28;3596566;39;20051;-63
2022/01/05 08:36:15;;;;;;;15.15;2.97;;;;;;;4.91;71.59;100265.66;3593714;39;20064;-63
2022/01/05 08:38:41;;;;;;;12.55;2.78;;;;;;;5.00;71.25;100270.53;3597094;39;20081;-63
2022/01/05 08:41:07;;;;;;;21.17;3.88;;;;;;;4.87;71.28;100235.63;3591868;39;20039;-63
2022/01/05 08:43:33;;;;;;;15.80;3.40;;;;;;;5.13;70.84;100270.81;3597371;39;20044;-63
2022/01/05 08:45:59;;;;;;;15.43;3.45;;;;;;;5.20;70.80;100277.59;3596394;39;20119;-63
2022/01/05 08:48:25;;;;;;;14.48;3.22;;;;;;;5.31;70.94;100275.25;3591072;39;20048;-63
2022/01/05 08:50:53;;;;;;;19.33;7.70;;;;;;;5.33;70.36;100278.72;3596364;39;20054;-63
2022/01/05 08:53:19;;;;;;;17.60;5.25;;;;;;;5.40;69.83;100279.28;3594245;39;20096;-63
2022/01/05 08:55:48;;;;;;;13.60;3.72;;;;;;;5.51;69.20;100284.06;3597047;39;20369;-63
2022/01/05 08:58:17;;;;;;;11.25;2.92;;;;;;;5.53;69.04;100279.53;3588491;39;20546;-63
2022/01/05 09:00:43;;;;;;;16.98;2.80;;;;;;;5.52;69.04;100273.34;3583727;40;20059;-63
2022/01/05 09:03:13;;;;;;;12.85;2.97;;;;;;;5.48;68.99;100276.22;3584019;40;20061;-63
2022/01/05 09:05:39;;;;;;;18.10;5.90;;;;;;;5.49;69.53;100289.50;3588614;39;20074;-63
2022/01/05 09:08:06;;;;;;;29.05;11.98;;;;;;;5.55;69.35;100293.63;3589374;39;20051;-63
2022/01/05 09:10:32;;;;;;;24.50;8.98;;;;;;;5.65;69.43;100299.41;3586350;40;20061;-63
2022/01/05 09:12:59;;;;;;;20.65;7.57;;;;;;;5.71;69.06;100293.72;3584420;40;20056;-65
2022/01/05 09:15:26;;;;;;;13.65;4.50;;;;;;;5.80;68.95;100294.16;3586096;39;20052;-64
2022/01/05 09:17:52;;;;;;;20.00;6.63;;;;;;;5.87;68.05;100299.16;3587253;39;20052;-63
2022/01/05 09:20:18;;;;;;;16.00;6.00;;;;;;;5.92;68.26;100305.13;3591757;39;20092;-64
2022/01/05 09:22:44;;;;;;;19.77;5.70;;;;;;;5.98;67.89;100303.03;3585296;40;20048;-64
2022/01/05 09:25:14;;;;;;;38.40;19.73;;;;;;;5.99;67.61;100298.56;3585270;40;20067;-64
2022/01/05 09:27:41;;;;;;;29.63;12.43;;;;;;;5.99;67.47;100282.56;3586878;40;20044;-66
2022/01/05 09:30:12;;;;;;;16.23;3.92;;;;;;;6.18;66.59;100304.66;3585584;40;20526;-64
2022/01/05 09:32:39;;;;;;;17.50;3.33;;;;;;;6.25;66.45;100316.78;3585728;40;20052;-64
2022/01/05 09:35:08;;;;;;;10.63;3.15;;;;;;;6.32;66.04;100322.66;3585366;40;20064;-64
2022/01/05 09:37:39;;;;;;;16.60;3.42;;;;;;;5.97;66.75;100265.78;3586244;40;20048;-64
2022/01/05 09:42:51;;;;;;;13.18;3.30;;;;;;;6.32;67.13;100337.81;3589878;39;20050;-64
2022/01/05 09:45:23;;;;;;;13.45;4.70;;;;;;;6.28;67.81;100348.63;3595372;39;20315;-64
2022/01/05 09:48:40;;;;;;;12.38;2.92;;;;;;;6.21;67.86;100346.34;3598121;39;20050;-63
2022/01/05 09:51:12;;;;;;;12.45;3.03;;;;;;;6.15;68.50;100336.88;3594237;39;20049;-64
2022/01/05 09:53:39;;;;;;;18.70;3.20;;;;;;;6.14;69.15;100351.13;3598054;39;20259;-65
2022/01/05 09:56:06;;;;;;;18.25;3.90;;;;;;;5.90;69.60;100299.00;3594991;39;20055;-63
2022/01/05 09:58:35;;;;;;;13.73;3.10;;;;;;;6.16;69.30;100351.94;3595824;39;20278;-64
2022/01/05 10:01:01;;;;;;;18.08;3.45;;;;;;;5.85;69.52;100298.38;3595479;39;20447;-64
2022/01/05 10:03:26;;;;;;;17.55;3.22;;;;;;;6.15;68.79;100352.00;3596467;39;20068;-64
2022/01/05 10:05:52;;;;;;;16.05;3.00;;;;;;;6.14;68.86;100355.63;3595929;39;20043;-64
2022/01/05 10:08:18;;;;;;;16.52;3.13;;;;;;;6.12;69.00;100353.03;3590736;39;20134;-64
2022/01/05 10:10:43;;;;;;;15.35;3.25;;;;;;;6.16;69.54;100346.59;3585974;40;20045;-65
2022/01/05 10:13:09;;;;;;;13.13;3.35;;;;;;;6.17;69.40;100348.31;3592736;39;20056;-65
2022/01/05 10:15:36;;;;;;;17.60;3.28;;;;;;;6.21;68.53;100347.19;3591491;39;20328;-65
2022/01/05 10:18:18;;;;;;;12.10;2.72;;;;;;;6.30;68.96;100350.34;3595313;39;20374;-65
2022/01/05 10:21:06;;;;;;;13.23;2.40;;;;;;;6.27;68.30;100357.56;3591627;39;20059;-65
2022/01/05 10:23:35;;;;;;;10.63;2.33;;;;;;;6.36;68.74;100360.72;3592756;39;20044;-65
2022/01/05 10:26:26;;;;;;;16.48;3.00;;;;;;;6.36;69.03;100371.41;3596555;39;20047;-64
2022/01/05 10:29:03;;;;;;;19.15;3.60;;;;;;;6.47;69.01;100369.00;3590983;39;20051;-65
2022/01/05 10:31:37;;;;;;;15.38;3.85;;;;;;;6.58;68.81;100389.84;3592802;39;20048;-64
2022/01/05 10:34:17;;;;;;;19.55;5.00;;;;;;;6.71;68.22;100366.88;3596048;39;20047;-65
2022/01/05 10:36:56;;;;;;;14.07;4.63;;;;;;;6.80;68.18;100373.53;3594394;39;20064;-65
2022/01/05 10:39:39;;;;;;;23.10;3.40;;;;;;;6.87;67.08;100382.94;3596221;39;20054;-65
2022/01/05 10:42:12;;;;;;;14.45;3.10;;;;;;;6.98;66.29;100375.22;3587230;40;20044;-65
2022/01/05 10:44:41;;;;;;;17.80;2.92;;;;;;;7.02;65.90;100375.91;3585638;40;20056;-65
2022/01/05 10:47:08;;;;;;;13.90;2.75;;;;;;;7.09;65.85;100379.97;3594317;39;20071;-65
2022/01/05 10:49:37;;;;;;;11.38;2.60;;;;;;;7.23;65.17;100374.75;3590678;39;20052;-65
2022/01/05 10:52:28;;;;;;;15.10;2.70;;;;;;;7.41;64.24;100386.22;3584705;40;20045;-65
2022/01/05 10:55:17;;;;;;;13.48;2.85;;;;;;;7.63;63.33;100389.41;3585226;40;20061;-65
2022/01/05 10:58:06;;;;;;;12.25;2.67;;;;;;;7.73;63.18;100399.59;3576203;40;20060;-65
2022/01/05 11:00:41;;;;;;;12.77;2.47;;;;;;;7.66;62.58;100399.06;3586041;40;20105;-65
2022/01/05 11:03:39;;;;;;;10.30;2.40;;;;;;;7.72;62.52;100413.91;3585619;40;20078;-65
2022/01/05 11:06:14;;;;;;;12.40;2.60;;;;;;;7.68;63.48;100416.78;3594370;39;20051;-65
2022/01/05 11:09:00;;;;;;;13.02;2.90;;;;;;;7.64;62.80;100400.97;3592724;39;20083;-64
2022/01/05 11:11:47;;;;;;;20.92;3.53;;;;;;;7.75;62.86;100419.09;3596805;39;20355;-65
2022/01/05 11:14:19;;;;;;;21.00;3.60;;;;;;;7.67;62.88;100423.09;3593966;39;20098;-65
2022/01/05 11:16:53;;;;;;;12.30;3.07;;;;;;;7.58;63.01;100396.84;3593614;39;20381;-65
2022/01/05 11:19:23;;;;;;;;;;;;;;;7.84;63.77;100423.94;3595411;39;20050;-65
2022/01/05 11:21:59;;;;;;;13.07;2.65;;;;;;;7.90;63.47;100419.09;3596380;39;19935;-65
2022/01/05 11:24:27;;;;;;;14.40;2.85;;;;;;;7.86;62.91;100419.34;3595477;39;20127;-65
2022/01/05 11:26:54;;;;;;;17.75;2.75;;;;;;;7.79;63.46;100432.19;3585144;39;20062;-65
2022/01/05 11:29:20;;;;;;;14.85;2.80;;;;;;;7.80;63.39;100422.34;3594175;39;20405;-65
2022/01/05 11:31:46;;;;;;;14.00;2.47;;;;;;;7.77;63.68;100430.56;3588385;39;20334;-65
2022/01/05 11:34:13;;;;;;;16.35;2.95;;;;;;;7.68;63.63;100424.78;3584731;40;20067;-65
2022/01/05 11:36:41;;;;;;;19.83;3.40;;;;;;;7.73;63.29;100437.03;3588014;39;20057;-65